sensor_id;sensor_type;location;lat;lon;timestamp;P1;durP1;ratioP1;P2;durP2;ratioP2
2650;SDS011;1335;48.180;16.342;2024-03-02T00:01:37;93.13;;;53.50;;
2650;SDS011;1335;48.180;16.342;2024-03-02T00:04:04;90.90;;;52.07;;
2650;SDS011;1335;48.180;16.342;2024-03-02T00:06:32;99.87;;;51.37;;
2650;SDS011;1335;48.180;16.342;2024-03-02T00:09:00;99.03;;;54.70;;
2650;SDS011;1335;48.180;16.342;2024-03-02T00:11:27;93.00;;;51.87;;
2650;SDS011;1335;48.180;16.342;2024-03-02T00:13:54;100.83;;;52.90;;
2650;SDS011;1335;48.180;16.342;2024-03-02T00:16:22;98.93;;;51.17;;
2650;SDS011;1335;48.180;16.342;2024-03-02T00:18:51;102.63;;;54.30;;
2650;SDS011;1335;48.180;16.342;2024-03-02T00:21:18;95.87;;;54.27;;
2650;SDS011;1335;48.180;16.342;2024-03-02T00:23:47;96.23;;;51.07;;
2650;SDS011;1335;48.180;16.342;2024-03-02T00:26:17;97.43;;;53.80;;
2650;SDS011;1335;48.180;16.342;2024-03-02T00:28:45;116.33;;;56.80;;
2650;SDS011;1335;48.180;16.342;2024-03-02T00:31:12;108.20;;;53.97;;
2650;SDS011;1335;48.180;16.342;2024-03-02T00:33:41;104.73;;;52.20;;
2650;SDS011;1335;48.180;16.342;2024-03-02T00:36:10;115.03;;;55.13;;
2650;SDS011;1335;48.180;16.342;2024-03-02T00:38:42;112.40;;;55.67;;
2650;SDS011;1335;48.180;16.342;2024-03-02T00:41:15;114.20;;;58.07;;
2650;SDS011;1335;48.180;16.342;2024-03-02T00:43:43;111.70;;;58.00;;
2650;SDS011;1335;48.180;16.342;2024-03-02T00:46:11;105.53;;;56.73;;
2650;SDS011;1335;48.180;16.342;2024-03-02T00:48:39;111.70;;;56.20;;
2650;SDS011;1335;48.180;16.342;2024-03-02T00:51:06;100.70;;;54.90;;
2650;SDS011;1335;48.180;16.342;2024-03-02T00:53:36;105.43;;;55.10;;
2650;SDS011;1335;48.180;16.342;2024-03-02T00:56:04;118.17;;;55.30;;
2650;SDS011;1335;48.180;16.342;2024-03-02T00:58:34;120.10;;;60.50;;
2650;SDS011;1335;48.180;16.342;2024-03-02T01:01:01;124.17;;;59.53;;
2650;SDS011;1335;48.180;16.342;2024-03-02T01:03:29;116.90;;;56.77;;
2650;SDS011;1335;48.180;16.342;2024-03-02T01:05:56;115.27;;;56.47;;
2650;SDS011;1335;48.180;16.342;2024-03-02T01:08:24;116.93;;;57.67;;
2650;SDS011;1335;48.180;16.342;2024-03-02T01:10:53;129.70;;;59.97;;
2650;SDS011;1335;48.180;16.342;2024-03-02T01:13:21;117.20;;;58.30;;
2650;SDS011;1335;48.180;16.342;2024-03-02T01:15:48;123.97;;;58.03;;
2650;SDS011;1335;48.180;16.342;2024-03-02T01:18:16;126.00;;;56.33;;
2650;SDS011;1335;48.180;16.342;2024-03-02T01:20:43;138.07;;;62.90;;
2650;SDS011;1335;48.180;16.342;2024-03-02T01:23:09;127.20;;;60.20;;
2650;SDS011;1335;48.180;16.342;2024-03-02T01:25:37;134.93;;;59.10;;
2650;SDS011;1335;48.180;16.342;2024-03-02T01:28:06;126.07;;;59.47;;
2650;SDS011;1335;48.180;16.342;2024-03-02T01:30:33;126.87;;;59.37;;
2650;SDS011;1335;48.180;16.342;2024-03-02T01:33:01;122.13;;;59.90;;
2650;SDS011;1335;48.180;16.342;2024-03-02T01:35:30;123.50;;;58.00;;
2650;SDS011;1335;48.180;16.342;2024-03-02T01:37:58;129.20;;;60.80;;
2650;SDS011;1335;48.180;16.342;2024-03-02T01:40:25;122.73;;;58.90;;
2650;SDS011;1335;48.180;16.342;2024-03-02T01:42:53;116.60;;;58.57;;
2650;SDS011;1335;48.180;16.342;2024-03-02T01:45:24;129.53;;;60.07;;
2650;SDS011;1335;48.180;16.342;2024-03-02T01:47:51;117.83;;;59.30;;
2650;SDS011;1335;48.180;16.342;2024-03-02T01:50:24;116.73;;;59.53;;
2650;SDS011;1335;48.180;16.342;2024-03-02T01:52:52;119.47;;;59.27;;
2650;SDS011;1335;48.180;16.342;2024-03-02T01:55:19;118.17;;;55.27;;
2650;SDS011;1335;48.180;16.342;2024-03-02T01:57:46;104.90;;;53.57;;
2650;SDS011;1335;48.180;16.342;2024-03-02T02:00:14;118.20;;;55.90;;
2650;SDS011;1335;48.180;16.342;2024-03-02T02:02:43;105.10;;;51.07;;
2650;SDS011;1335;48.180;16.342;2024-03-02T02:05:10;106.53;;;53.93;;
2650;SDS011;1335;48.180;16.342;2024-03-02T02:07:39;115.67;;;53.83;;
2650;SDS011;1335;48.180;16.342;2024-03-02T02:10:07;105.13;;;51.87;;
2650;SDS011;1335;48.180;16.342;2024-03-02T02:12:34;107.43;;;51.73;;
2650;SDS011;1335;48.180;16.342;2024-03-02T02:15:02;106.07;;;52.63;;
2650;SDS011;1335;48.180;16.342;2024-03-02T02:17:30;110.23;;;54.97;;
2650;SDS011;1335;48.180;16.342;2024-03-02T02:19:59;105.60;;;52.00;;
2650;SDS011;1335;48.180;16.342;2024-03-02T02:22:28;108.60;;;53.20;;
2650;SDS011;1335;48.180;16.342;2024-03-02T02:24:55;88.70;;;50.30;;
2650;SDS011;1335;48.180;16.342;2024-03-02T02:27:22;93.03;;;49.60;;
2650;SDS011;1335;48.180;16.342;2024-03-02T02:29:50;88.97;;;49.83;;
2650;SDS011;1335;48.180;16.342;2024-03-02T02:32:17;85.63;;;49.27;;
2650;SDS011;1335;48.180;16.342;2024-03-02T02:34:44;86.83;;;48.57;;
2650;SDS011;1335;48.180;16.342;2024-03-02T02:37:11;83.70;;;45.43;;
2650;SDS011;1335;48.180;16.342;2024-03-02T02:39:40;87.33;;;49.20;;
2650;SDS011;1335;48.180;16.342;2024-03-02T02:42:08;84.63;;;46.53;;
2650;SDS011;1335;48.180;16.342;2024-03-02T02:44:35;77.73;;;44.67;;
2650;SDS011;1335;48.180;16.342;2024-03-02T02:47:02;76.73;;;45.17;;
2650;SDS011;1335;48.180;16.342;2024-03-02T02:49:29;81.40;;;43.70;;
2650;SDS011;1335;48.180;16.342;2024-03-02T02:51:58;83.53;;;46.40;;
2650;SDS011;1335;48.180;16.342;2024-03-02T02:54:25;71.20;;;45.03;;
2650;SDS011;1335;48.180;16.342;2024-03-02T02:56:54;88.20;;;46.60;;
2650;SDS011;1335;48.180;16.342;2024-03-02T02:59:21;96.07;;;47.67;;
2650;SDS011;1335;48.180;16.342;2024-03-02T03:01:48;89.40;;;47.23;;
2650;SDS011;1335;48.180;16.342;2024-03-02T03:04:18;88.70;;;46.20;;
2650;SDS011;1335;48.180;16.342;2024-03-02T03:06:45;88.77;;;47.57;;
2650;SDS011;1335;48.180;16.342;2024-03-02T03:09:13;89.90;;;48.37;;
2650;SDS011;1335;48.180;16.342;2024-03-02T03:11:40;87.37;;;48.17;;
2650;SDS011;1335;48.180;16.342;2024-03-02T03:14:09;94.57;;;50.30;;
2650;SDS011;1335;48.180;16.342;2024-03-02T03:16:36;91.60;;;49.40;;
2650;SDS011;1335;48.180;16.342;2024-03-02T03:19:03;89.23;;;49.17;;
2650;SDS011;1335;48.180;16.342;2024-03-02T03:21:31;89.27;;;51.00;;
2650;SDS011;1335;48.180;16.342;2024-03-02T03:23:58;86.43;;;47.70;;
2650;SDS011;1335;48.180;16.342;2024-03-02T03:26:25;81.17;;;46.20;;
2650;SDS011;1335;48.180;16.342;2024-03-02T03:28:53;84.43;;;48.20;;
2650;SDS011;1335;48.180;16.342;2024-03-02T03:31:21;84.87;;;48.00;;
2650;SDS011;1335;48.180;16.342;2024-03-02T03:33:49;93.73;;;48.27;;
2650;SDS011;1335;48.180;16.342;2024-03-02T03:36:16;89.80;;;47.77;;
2650;SDS011;1335;48.180;16.342;2024-03-02T03:38:43;81.50;;;46.13;;
2650;SDS011;1335;48.180;16.342;2024-03-02T03:41:10;85.50;;;47.83;;
2650;SDS011;1335;48.180;16.342;2024-03-02T03:43:38;82.60;;;45.27;;
2650;SDS011;1335;48.180;16.342;2024-03-02T03:46:05;82.00;;;45.47;;
2650;SDS011;1335;48.180;16.342;2024-03-02T03:48:34;82.33;;;47.40;;
2650;SDS011;1335;48.180;16.342;2024-03-02T03:51:01;89.70;;;47.27;;
2650;SDS011;1335;48.180;16.342;2024-03-02T03:53:28;91.83;;;47.97;;
2650;SDS011;1335;48.180;16.342;2024-03-02T03:55:56;99.50;;;47.33;;
2650;SDS011;1335;48.180;16.342;2024-03-02T03:58:23;102.80;;;49.60;;
2650;SDS011;1335;48.180;16.342;2024-03-02T04:00:50;109.40;;;50.10;;
2650;SDS011;1335;48.180;16.342;2024-03-02T04:03:18;96.50;;;51.03;;
2650;SDS011;1335;48.180;16.342;2024-03-02T04:05:46;109.93;;;50.33;;
2650;SDS011;1335;48.180;16.342;2024-03-02T04:08:14;105.07;;;51.43;;
2650;SDS011;1335;48.180;16.342;2024-03-02T04:10:41;126.20;;;54.77;;
2650;SDS011;1335;48.180;16.342;2024-03-02T04:13:08;119.83;;;53.37;;
2650;SDS011;1335;48.180;16.342;2024-03-02T04:15:36;106.27;;;51.93;;
2650;SDS011;1335;48.180;16.342;2024-03-02T04:18:03;111.67;;;51.87;;
2650;SDS011;1335;48.180;16.342;2024-03-02T04:20:30;106.30;;;51.97;;
2650;SDS011;1335;48.180;16.342;2024-03-02T04:22:59;107.23;;;52.57;;
2650;SDS011;1335;48.180;16.342;2024-03-02T04:25:26;102.30;;;52.40;;
2650;SDS011;1335;48.180;16.342;2024-03-02T04:27:54;106.83;;;51.80;;
2650;SDS011;1335;48.180;16.342;2024-03-02T04:30:21;106.87;;;51.80;;
2650;SDS011;1335;48.180;16.342;2024-03-02T04:32:48;122.13;;;52.23;;
2650;SDS011;1335;48.180;16.342;2024-03-02T04:35:16;110.87;;;51.80;;
2650;SDS011;1335;48.180;16.342;2024-03-02T04:37:43;118.80;;;53.20;;
2650;SDS011;1335;48.180;16.342;2024-03-02T04:40:12;101.20;;;51.87;;
2650;SDS011;1335;48.180;16.342;2024-03-02T04:42:40;110.90;;;51.37;;
2650;SDS011;1335;48.180;16.342;2024-03-02T04:45:07;109.53;;;53.80;;
2650;SDS011;1335;48.180;16.342;2024-03-02T04:47:34;103.73;;;50.03;;
2650;SDS011;1335;48.180;16.342;2024-03-02T04:50:02;97.47;;;49.30;;
2650;SDS011;1335;48.180;16.342;2024-03-02T04:52:29;104.50;;;49.50;;
2650;SDS011;1335;48.180;16.342;2024-03-02T04:54:56;105.07;;;46.27;;
2650;SDS011;1335;48.180;16.342;2024-03-02T04:57:46;99.63;;;48.70;;
2650;SDS011;1335;48.180;16.342;2024-03-02T05:00:16;103.57;;;48.40;;
2650;SDS011;1335;48.180;16.342;2024-03-02T05:02:43;87.30;;;46.30;;
2650;SDS011;1335;48.180;16.342;2024-03-02T05:05:11;85.00;;;45.53;;
2650;SDS011;1335;48.180;16.342;2024-03-02T05:07:40;105.97;;;47.93;;
2650;SDS011;1335;48.180;16.342;2024-03-02T05:10:09;91.80;;;47.33;;
2650;SDS011;1335;48.180;16.342;2024-03-02T05:12:37;108.17;;;48.93;;
2650;SDS011;1335;48.180;16.342;2024-03-02T05:15:23;116.17;;;51.30;;
2650;SDS011;1335;48.180;16.342;2024-03-02T05:17:50;98.63;;;48.53;;
2650;SDS011;1335;48.180;16.342;2024-03-02T05:20:18;170.27;;;50.97;;
2650;SDS011;1335;48.180;16.342;2024-03-02T05:22:45;192.47;;;53.30;;
2650;SDS011;1335;48.180;16.342;2024-03-02T05:25:13;182.33;;;53.50;;
2650;SDS011;1335;48.180;16.342;2024-03-02T05:27:41;213.23;;;55.20;;
2650;SDS011;1335;48.180;16.342;2024-03-02T05:30:08;139.27;;;54.23;;
2650;SDS011;1335;48.180;16.342;2024-03-02T05:32:37;240.13;;;58.20;;
2650;SDS011;1335;48.180;16.342;2024-03-02T05:35:05;204.23;;;55.40;;
2650;SDS011;1335;48.180;16.342;2024-03-02T05:37:33;128.67;;;51.77;;
2650;SDS011;1335;48.180;16.342;2024-03-02T05:40:00;137.87;;;53.60;;
2650;SDS011;1335;48.180;16.342;2024-03-02T05:42:27;236.07;;;53.77;;
2650;SDS011;1335;48.180;16.342;2024-03-02T05:44:55;220.80;;;53.60;;
2650;SDS011;1335;48.180;16.342;2024-03-02T05:47:22;217.47;;;49.30;;
2650;SDS011;1335;48.180;16.342;2024-03-02T05:49:51;176.20;;;48.60;;
2650;SDS011;1335;48.180;16.342;2024-03-02T05:52:18;192.97;;;48.27;;
2650;SDS011;1335;48.180;16.342;2024-03-02T05:54:45;208.93;;;49.47;;
2650;SDS011;1335;48.180;16.342;2024-03-02T05:57:14;266.13;;;51.20;;
2650;SDS011;1335;48.180;16.342;2024-03-02T05:59:57;136.43;;;48.30;;
2650;SDS011;1335;48.180;16.342;2024-03-02T06:02:25;167.90;;;45.97;;
2650;SDS011;1335;48.180;16.342;2024-03-02T06:04:55;174.50;;;50.77;;
2650;SDS011;1335;48.180;16.342;2024-03-02T06:07:23;109.70;;;47.00;;
2650;SDS011;1335;48.180;16.342;2024-03-02T06:09:50;106.33;;;47.10;;
2650;SDS011;1335;48.180;16.342;2024-03-02T06:12:17;104.90;;;46.37;;
2650;SDS011;1335;48.180;16.342;2024-03-02T06:14:45;91.73;;;45.10;;
2650;SDS011;1335;48.180;16.342;2024-03-02T06:17:12;100.67;;;44.47;;
2650;SDS011;1335;48.180;16.342;2024-03-02T06:19:39;90.73;;;46.30;;
2650;SDS011;1335;48.180;16.342;2024-03-02T06:22:08;91.30;;;44.27;;
2650;SDS011;1335;48.180;16.342;2024-03-02T06:24:35;131.40;;;45.27;;
2650;SDS011;1335;48.180;16.342;2024-03-02T06:27:03;117.97;;;45.60;;
2650;SDS011;1335;48.180;16.342;2024-03-02T06:29:32;102.60;;;44.87;;
2650;SDS011;1335;48.180;16.342;2024-03-02T06:32:00;106.37;;;44.60;;
2650;SDS011;1335;48.180;16.342;2024-03-02T06:34:27;145.30;;;47.67;;
2650;SDS011;1335;48.180;16.342;2024-03-02T06:36:54;224.60;;;48.47;;
2650;SDS011;1335;48.180;16.342;2024-03-02T06:39:23;204.43;;;49.87;;
2650;SDS011;1335;48.180;16.342;2024-03-02T06:41:51;170.60;;;48.67;;
2650;SDS011;1335;48.180;16.342;2024-03-02T06:44:18;206.80;;;50.00;;
2650;SDS011;1335;48.180;16.342;2024-03-02T06:46:46;238.70;;;50.50;;
2650;SDS011;1335;48.180;16.342;2024-03-02T06:49:13;146.53;;;48.37;;
2650;SDS011;1335;48.180;16.342;2024-03-02T06:51:43;168.80;;;48.90;;
2650;SDS011;1335;48.180;16.342;2024-03-02T06:54:10;276.97;;;55.47;;
2650;SDS011;1335;48.180;16.342;2024-03-02T06:56:39;251.00;;;53.80;;
2650;SDS011;1335;48.180;16.342;2024-03-02T06:59:06;217.93;;;52.57;;
2650;SDS011;1335;48.180;16.342;2024-03-02T07:01:33;121.37;;;51.20;;
2650;SDS011;1335;48.180;16.342;2024-03-02T07:04:01;125.73;;;53.00;;
2650;SDS011;1335;48.180;16.342;2024-03-02T07:06:28;137.17;;;50.87;;
2650;SDS011;1335;48.180;16.342;2024-03-02T07:08:55;130.77;;;48.27;;
2650;SDS011;1335;48.180;16.342;2024-03-02T07:11:23;124.60;;;47.20;;
2650;SDS011;1335;48.180;16.342;2024-03-02T07:13:51;144.83;;;46.37;;
2650;SDS011;1335;48.180;16.342;2024-03-02T07:16:19;157.47;;;44.97;;
2650;SDS011;1335;48.180;16.342;2024-03-02T07:18:53;173.53;;;53.30;;
2650;SDS011;1335;48.180;16.342;2024-03-02T07:21:21;126.37;;;48.13;;
2650;SDS011;1335;48.180;16.342;2024-03-02T07:23:49;122.13;;;49.97;;
2650;SDS011;1335;48.180;16.342;2024-03-02T07:26:16;110.70;;;47.80;;
2650;SDS011;1335;48.180;16.342;2024-03-02T07:28:44;105.70;;;48.20;;
2650;SDS011;1335;48.180;16.342;2024-03-02T07:31:14;87.90;;;46.80;;
2650;SDS011;1335;48.180;16.342;2024-03-02T07:33:43;108.83;;;49.37;;
2650;SDS011;1335;48.180;16.342;2024-03-02T07:36:11;136.37;;;50.77;;
2650;SDS011;1335;48.180;16.342;2024-03-02T07:38:38;175.77;;;52.63;;
2650;SDS011;1335;48.180;16.342;2024-03-02T07:41:06;155.57;;;50.23;;
2650;SDS011;1335;48.180;16.342;2024-03-02T07:43:34;113.43;;;47.07;;
2650;SDS011;1335;48.180;16.342;2024-03-02T07:46:01;105.60;;;48.80;;
2650;SDS011;1335;48.180;16.342;2024-03-02T07:48:30;108.13;;;46.50;;
2650;SDS011;1335;48.180;16.342;2024-03-02T07:50:58;96.50;;;46.73;;
2650;SDS011;1335;48.180;16.342;2024-03-02T07:53:25;90.77;;;47.20;;
2650;SDS011;1335;48.180;16.342;2024-03-02T07:55:53;92.17;;;45.37;;
2650;SDS011;1335;48.180;16.342;2024-03-02T07:58:22;100.63;;;45.03;;
2650;SDS011;1335;48.180;16.342;2024-03-02T08:00:49;95.07;;;44.40;;
2650;SDS011;1335;48.180;16.342;2024-03-02T08:03:16;75.77;;;42.23;;
2650;SDS011;1335;48.180;16.342;2024-03-02T08:05:45;80.87;;;40.57;;
2650;SDS011;1335;48.180;16.342;2024-03-02T08:08:12;57.53;;;38.70;;
2650;SDS011;1335;48.180;16.342;2024-03-02T08:10:40;59.67;;;37.00;;
2650;SDS011;1335;48.180;16.342;2024-03-02T08:13:07;54.00;;;37.10;;
2650;SDS011;1335;48.180;16.342;2024-03-02T08:15:34;55.00;;;36.73;;
2650;SDS011;1335;48.180;16.342;2024-03-02T08:18:02;48.67;;;35.60;;
2650;SDS011;1335;48.180;16.342;2024-03-02T08:20:29;44.67;;;31.27;;
2650;SDS011;1335;48.180;16.342;2024-03-02T08:22:58;41.90;;;30.77;;
2650;SDS011;1335;48.180;16.342;2024-03-02T08:25:25;40.23;;;29.93;;
2650;SDS011;1335;48.180;16.342;2024-03-02T08:27:57;39.87;;;28.90;;
2650;SDS011;1335;48.180;16.342;2024-03-02T08:30:25;37.00;;;28.20;;
2650;SDS011;1335;48.180;16.342;2024-03-02T08:32:52;38.93;;;29.10;;
2650;SDS011;1335;48.180;16.342;2024-03-02T08:35:18;40.97;;;28.37;;
2650;SDS011;1335;48.180;16.342;2024-03-02T08:37:47;40.60;;;27.60;;
2650;SDS011;1335;48.180;16.342;2024-03-02T08:40:16;38.63;;;27.10;;
2650;SDS011;1335;48.180;16.342;2024-03-02T08:42:43;37.10;;;27.70;;
2650;SDS011;1335;48.180;16.342;2024-03-02T08:45:11;41.00;;;26.17;;
2650;SDS011;1335;48.180;16.342;2024-03-02T08:47:39;37.67;;;26.77;;
2650;SDS011;1335;48.180;16.342;2024-03-02T08:50:07;39.00;;;29.10;;
2650;SDS011;1335;48.180;16.342;2024-03-02T08:52:34;35.70;;;26.80;;
2650;SDS011;1335;48.180;16.342;2024-03-02T08:55:02;36.50;;;28.60;;
2650;SDS011;1335;48.180;16.342;2024-03-02T08:57:31;39.10;;;28.30;;
2650;SDS011;1335;48.180;16.342;2024-03-02T08:59:58;44.97;;;34.60;;
2650;SDS011;1335;48.180;16.342;2024-03-02T09:02:26;37.80;;;27.83;;
2650;SDS011;1335;48.180;16.342;2024-03-02T09:04:53;39.63;;;29.23;;
2650;SDS011;1335;48.180;16.342;2024-03-02T09:07:20;47.83;;;37.30;;
2650;SDS011;1335;48.180;16.342;2024-03-02T09:09:47;42.87;;;29.27;;
2650;SDS011;1335;48.180;16.342;2024-03-02T09:12:15;42.57;;;34.03;;
2650;SDS011;1335;48.180;16.342;2024-03-02T09:14:44;47.60;;;36.90;;
2650;SDS011;1335;48.180;16.342;2024-03-02T09:17:11;44.50;;;31.87;;
2650;SDS011;1335;48.180;16.342;2024-03-02T09:19:39;43.27;;;31.63;;
2650;SDS011;1335;48.180;16.342;2024-03-02T09:22:06;46.83;;;32.60;;
2650;SDS011;1335;48.180;16.342;2024-03-02T09:24:34;48.00;;;33.73;;
2650;SDS011;1335;48.180;16.342;2024-03-02T09:27:02;43.70;;;31.73;;
2650;SDS011;1335;48.180;16.342;2024-03-02T09:29:29;46.63;;;32.13;;
2650;SDS011;1335;48.180;16.342;2024-03-02T09:31:58;45.40;;;32.40;;
2650;SDS011;1335;48.180;16.342;2024-03-02T09:34:25;43.50;;;30.63;;
2650;SDS011;1335;48.180;16.342;2024-03-02T09:36:53;51.57;;;33.30;;
2650;SDS011;1335;48.180;16.342;2024-03-02T09:39:20;45.40;;;34.33;;
2650;SDS011;1335;48.180;16.342;2024-03-02T09:41:47;42.80;;;31.77;;
2650;SDS011;1335;48.180;16.342;2024-03-02T09:44:15;51.63;;;34.00;;
2650;SDS011;1335;48.180;16.342;2024-03-02T09:46:42;49.97;;;33.70;;
2650;SDS011;1335;48.180;16.342;2024-03-02T09:49:13;45.20;;;34.40;;
2650;SDS011;1335;48.180;16.342;2024-03-02T09:51:41;44.00;;;35.00;;
2650;SDS011;1335;48.180;16.342;2024-03-02T09:54:12;47.17;;;33.37;;
2650;SDS011;1335;48.180;16.342;2024-03-02T09:56:39;45.53;;;33.90;;
2650;SDS011;1335;48.180;16.342;2024-03-02T09:59:06;50.47;;;32.93;;
2650;SDS011;1335;48.180;16.342;2024-03-02T10:01:34;46.83;;;35.80;;
2650;SDS011;1335;48.180;16.342;2024-03-02T10:04:01;50.90;;;35.20;;
2650;SDS011;1335;48.180;16.342;2024-03-02T10:06:30;48.27;;;34.07;;
2650;SDS011;1335;48.180;16.342;2024-03-02T10:08:57;53.87;;;34.67;;
2650;SDS011;1335;48.180;16.342;2024-03-02T10:11:28;49.93;;;36.33;;
2650;SDS011;1335;48.180;16.342;2024-03-02T10:14:05;44.87;;;34.50;;
2650;SDS011;1335;48.180;16.342;2024-03-02T10:16:34;49.07;;;35.70;;
2650;SDS011;1335;48.180;16.342;2024-03-02T10:19:15;47.67;;;35.47;;
2650;SDS011;1335;48.180;16.342;2024-03-02T10:21:44;47.57;;;36.30;;
2650;SDS011;1335;48.180;16.342;2024-03-02T10:24:11;50.50;;;36.57;;
2650;SDS011;1335;48.180;16.342;2024-03-02T10:26:39;49.60;;;35.77;;
2650;SDS011;1335;48.180;16.342;2024-03-02T10:29:07;50.77;;;36.00;;
2650;SDS011;1335;48.180;16.342;2024-03-02T10:31:36;53.20;;;35.60;;
2650;SDS011;1335;48.180;16.342;2024-03-02T10:34:04;50.67;;;36.23;;
2650;SDS011;1335;48.180;16.342;2024-03-02T10:36:31;42.90;;;33.33;;
2650;SDS011;1335;48.180;16.342;2024-03-02T10:39:02;50.50;;;36.57;;
2650;SDS011;1335;48.180;16.342;2024-03-02T10:41:31;49.37;;;39.17;;
2650;SDS011;1335;48.180;16.342;2024-03-02T10:44:01;51.10;;;37.70;;
2650;SDS011;1335;48.180;16.342;2024-03-02T10:46:29;54.60;;;39.60;;
2650;SDS011;1335;48.180;16.342;2024-03-02T10:48:57;50.40;;;36.70;;
2650;SDS011;1335;48.180;16.342;2024-03-02T10:51:24;51.50;;;36.97;;
2650;SDS011;1335;48.180;16.342;2024-03-02T10:53:52;53.10;;;39.03;;
2650;SDS011;1335;48.180;16.342;2024-03-02T10:56:26;51.00;;;39.10;;
2650;SDS011;1335;48.180;16.342;2024-03-02T10:58:55;52.00;;;37.87;;
2650;SDS011;1335;48.180;16.342;2024-03-02T11:01:25;45.87;;;37.80;;
2650;SDS011;1335;48.180;16.342;2024-03-02T11:03:52;49.63;;;37.37;;
2650;SDS011;1335;48.180;16.342;2024-03-02T11:06:20;46.80;;;35.70;;
2650;SDS011;1335;48.180;16.342;2024-03-02T11:08:49;49.93;;;36.10;;
2650;SDS011;1335;48.180;16.342;2024-03-02T11:11:21;50.43;;;35.67;;
2650;SDS011;1335;48.180;16.342;2024-03-02T11:13:51;49.67;;;36.20;;
2650;SDS011;1335;48.180;16.342;2024-03-02T11:16:22;48.77;;;36.83;;
2650;SDS011;1335;48.180;16.342;2024-03-02T11:18:55;49.30;;;36.40;;
2650;SDS011;1335;48.180;16.342;2024-03-02T11:21:24;40.90;;;34.53;;
2650;SDS011;1335;48.180;16.342;2024-03-02T11:23:52;44.73;;;36.13;;
2650;SDS011;1335;48.180;16.342;2024-03-02T11:26:21;43.07;;;34.50;;
2650;SDS011;1335;48.180;16.342;2024-03-02T11:28:51;47.00;;;36.87;;
2650;SDS011;1335;48.180;16.342;2024-03-02T11:31:18;44.07;;;33.63;;
2650;SDS011;1335;48.180;16.342;2024-03-02T11:33:45;46.97;;;34.67;;
2650;SDS011;1335;48.180;16.342;2024-03-02T11:36:13;44.37;;;36.87;;
2650;SDS011;1335;48.180;16.342;2024-03-02T11:38:40;45.30;;;36.57;;
2650;SDS011;1335;48.180;16.342;2024-03-02T11:41:12;45.20;;;34.77;;
2650;SDS011;1335;48.180;16.342;2024-03-02T11:43:40;47.33;;;37.33;;
2650;SDS011;1335;48.180;16.342;2024-03-02T11:46:12;50.37;;;38.90;;
2650;SDS011;1335;48.180;16.342;2024-03-02T11:48:39;47.13;;;37.67;;
2650;SDS011;1335;48.180;16.342;2024-03-02T11:51:06;46.83;;;36.87;;
2650;SDS011;1335;48.180;16.342;2024-03-02T11:53:34;48.30;;;38.20;;
2650;SDS011;1335;48.180;16.342;2024-03-02T11:56:02;45.50;;;36.57;;
2650;SDS011;1335;48.180;16.342;2024-03-02T11:58:30;54.33;;;38.40;;
2650;SDS011;1335;48.180;16.342;2024-03-02T12:00:58;45.83;;;37.40;;
2650;SDS011;1335;48.180;16.342;2024-03-02T12:03:27;44.70;;;35.23;;
2650;SDS011;1335;48.180;16.342;2024-03-02T12:05:54;44.53;;;35.90;;
2650;SDS011;1335;48.180;16.342;2024-03-02T12:08:22;48.93;;;39.17;;
2650;SDS011;1335;48.180;16.342;2024-03-02T12:10:58;49.53;;;38.00;;
2650;SDS011;1335;48.180;16.342;2024-03-02T12:13:26;48.73;;;37.33;;
2650;SDS011;1335;48.180;16.342;2024-03-02T12:15:54;49.50;;;40.03;;
2650;SDS011;1335;48.180;16.342;2024-03-02T12:18:22;47.33;;;37.27;;
2650;SDS011;1335;48.180;16.342;2024-03-02T12:20:51;52.80;;;39.03;;
2650;SDS011;1335;48.180;16.342;2024-03-02T12:23:22;49.30;;;38.20;;
2650;SDS011;1335;48.180;16.342;2024-03-02T12:25:49;46.70;;;39.50;;
2650;SDS011;1335;48.180;16.342;2024-03-02T12:28:17;48.47;;;39.00;;
2650;SDS011;1335;48.180;16.342;2024-03-02T12:30:44;50.33;;;40.67;;
2650;SDS011;1335;48.180;16.342;2024-03-02T12:33:13;50.73;;;37.23;;
2650;SDS011;1335;48.180;16.342;2024-03-02T12:35:40;48.20;;;37.63;;
2650;SDS011;1335;48.180;16.342;2024-03-02T12:38:09;43.77;;;36.97;;
2650;SDS011;1335;48.180;16.342;2024-03-02T12:40:37;41.70;;;36.67;;
2650;SDS011;1335;48.180;16.342;2024-03-02T12:43:04;44.67;;;36.93;;
2650;SDS011;1335;48.180;16.342;2024-03-02T12:45:32;47.20;;;36.93;;
2650;SDS011;1335;48.180;16.342;2024-03-02T12:47:59;41.10;;;36.03;;
2650;SDS011;1335;48.180;16.342;2024-03-02T12:50:27;44.33;;;36.03;;
2650;SDS011;1335;48.180;16.342;2024-03-02T12:52:55;45.90;;;36.47;;
2650;SDS011;1335;48.180;16.342;2024-03-02T12:55:24;40.77;;;34.83;;
2650;SDS011;1335;48.180;16.342;2024-03-02T12:57:51;43.13;;;35.13;;
2650;SDS011;1335;48.180;16.342;2024-03-02T13:00:18;40.47;;;34.60;;
2650;SDS011;1335;48.180;16.342;2024-03-02T13:02:46;43.47;;;37.97;;
2650;SDS011;1335;48.180;16.342;2024-03-02T13:05:15;40.10;;;35.30;;
2650;SDS011;1335;48.180;16.342;2024-03-02T13:07:43;41.50;;;35.20;;
2650;SDS011;1335;48.180;16.342;2024-03-02T13:10:11;39.27;;;34.00;;
2650;SDS011;1335;48.180;16.342;2024-03-02T13:12:40;38.27;;;34.27;;
2650;SDS011;1335;48.180;16.342;2024-03-02T13:15:08;40.57;;;34.10;;
2650;SDS011;1335;48.180;16.342;2024-03-02T13:17:35;43.77;;;34.57;;
2650;SDS011;1335;48.180;16.342;2024-03-02T13:20:03;39.20;;;34.90;;
2650;SDS011;1335;48.180;16.342;2024-03-02T13:22:33;34.80;;;31.13;;
2650;SDS011;1335;48.180;16.342;2024-03-02T13:25:00;34.60;;;30.20;;
2650;SDS011;1335;48.180;16.342;2024-03-02T13:27:29;33.63;;;30.00;;
2650;SDS011;1335;48.180;16.342;2024-03-02T13:29:58;36.43;;;31.60;;
2650;SDS011;1335;48.180;16.342;2024-03-02T13:32:25;38.23;;;31.03;;
2650;SDS011;1335;48.180;16.342;2024-03-02T13:34:52;32.30;;;28.67;;
2650;SDS011;1335;48.180;16.342;2024-03-02T13:37:20;36.37;;;30.40;;
2650;SDS011;1335;48.180;16.342;2024-03-02T13:39:47;31.50;;;28.30;;
2650;SDS011;1335;48.180;16.342;2024-03-02T13:42:15;34.70;;;29.80;;
2650;SDS011;1335;48.180;16.342;2024-03-02T13:44:43;36.63;;;29.40;;
2650;SDS011;1335;48.180;16.342;2024-03-02T13:47:12;35.57;;;30.37;;
2650;SDS011;1335;48.180;16.342;2024-03-02T13:49:39;36.67;;;30.30;;
2650;SDS011;1335;48.180;16.342;2024-03-02T13:52:09;34.20;;;30.50;;
2650;SDS011;1335;48.180;16.342;2024-03-02T13:54:38;34.37;;;28.60;;
2650;SDS011;1335;48.180;16.342;2024-03-02T13:57:05;34.07;;;30.03;;
2650;SDS011;1335;48.180;16.342;2024-03-02T13:59:33;36.27;;;30.27;;
2650;SDS011;1335;48.180;16.342;2024-03-02T14:02:01;34.20;;;30.40;;
2650;SDS011;1335;48.180;16.342;2024-03-02T14:04:30;43.07;;;32.13;;
2650;SDS011;1335;48.180;16.342;2024-03-02T14:06:58;33.87;;;30.17;;
2650;SDS011;1335;48.180;16.342;2024-03-02T14:09:25;34.53;;;30.80;;
2650;SDS011;1335;48.180;16.342;2024-03-02T14:11:53;35.83;;;29.93;;
2650;SDS011;1335;48.180;16.342;2024-03-02T14:14:20;35.73;;;30.93;;
2650;SDS011;1335;48.180;16.342;2024-03-02T14:16:48;39.53;;;31.73;;
2650;SDS011;1335;48.180;16.342;2024-03-02T14:19:15;39.53;;;30.77;;
2650;SDS011;1335;48.180;16.342;2024-03-02T14:21:44;40.33;;;32.20;;
2650;SDS011;1335;48.180;16.342;2024-03-02T14:24:12;38.43;;;33.13;;
2650;SDS011;1335;48.180;16.342;2024-03-02T14:26:39;36.10;;;30.60;;
2650;SDS011;1335;48.180;16.342;2024-03-02T14:29:07;39.73;;;32.50;;
2650;SDS011;1335;48.180;16.342;2024-03-02T14:31:34;37.73;;;32.27;;
2650;SDS011;1335;48.180;16.342;2024-03-02T14:34:02;40.40;;;34.53;;